sensor_id;sensor_type;location;lat;lon;timestamp;P1;durP1;ratioP1;P2;durP2;ratioP2
8683;SDS011;4379;59.744;18.206;2023-04-03T00:01:07;5.00;;;1.80;;
8683;SDS011;4379;59.744;18.206;2023-04-03T00:03:35;2.70;;;1.67;;
8683;SDS011;4379;59.744;18.206;2023-04-03T00:06:03;5.50;;;1.83;;
8683;SDS011;4379;59.744;18.206;2023-04-03T00:08:36;5.63;;;1.47;;
8683;SDS011;4379;59.744;18.206;2023-04-03T00:11:04;10.53;;;1.50;;
8683;SDS011;4379;59.744;18.206;2023-04-03T00:13:32;4.90;;;1.77;;
8683;SDS011;4379;59.744;18.206;2023-04-03T00:16:03;3.33;;;1.50;;
8683;SDS011;4379;59.744;18.206;2023-04-03T00:18:31;5.37;;;1.43;;
8683;SDS011;4379;59.744;18.206;2023-04-03T00:20:59;4.93;;;1.57;;
8683;SDS011;4379;59.744;18.206;2023-04-03T00:23:27;4.23;;;1.40;;
8683;SDS011;4379;59.744;18.206;2023-04-03T00:25:54;3.27;;;1.57;;
8683;SDS011;4379;59.744;18.206;2023-04-03T00:28:22;6.10;;;1.70;;
8683;SDS011;4379;59.744;18.206;2023-04-03T00:30:50;5.77;;;1.87;;
8683;SDS011;4379;59.744;18.206;2023-04-03T00:33:18;9.17;;;1.93;;
8683;SDS011;4379;59.744;18.206;2023-04-03T00:35:51;7.97;;;1.53;;
8683;SDS011;4379;59.744;18.206;2023-04-03T00:38:18;4.97;;;1.97;;
8683;SDS011;4379;59.744;18.206;2023-04-03T00:40:47;5.37;;;1.37;;
8683;SDS011;4379;59.744;18.206;2023-04-03T00:43:22;6.67;;;1.47;;
8683;SDS011;4379;59.744;18.206;2023-04-03T00:45:54;5.80;;;1.80;;
8683;SDS011;4379;59.744;18.206;2023-04-03T00:50:58;3.13;;;1.03;;
8683;SDS011;4379;59.744;18.206;2023-04-03T00:53:35;3.70;;;1.37;;
8683;SDS011;4379;59.744;18.206;2023-04-03T00:56:08;4.10;;;1.63;;
8683;SDS011;4379;59.744;18.206;2023-04-03T00:58:59;2.00;;;1.50;;
8683;SDS011;4379;59.744;18.206;2023-04-03T01:01:31;8.57;;;1.93;;
8683;SDS011;4379;59.744;18.206;2023-04-03T01:04:02;2.83;;;1.37;;
8683;SDS011;4379;59.744;18.206;2023-04-03T01:06:35;2.30;;;1.23;;
8683;SDS011;4379;59.744;18.206;2023-04-03T01:09:05;5.73;;;1.70;;
8683;SDS011;4379;59.744;18.206;2023-04-03T01:11:35;3.57;;;1.30;;
8683;SDS011;4379;59.744;18.206;2023-04-03T01:14:05;5.03;;;1.30;;
8683;SDS011;4379;59.744;18.206;2023-04-03T01:16:35;4.30;;;1.40;;
8683;SDS011;4379;59.744;18.206;2023-04-03T01:19:06;4.57;;;1.63;;
8683;SDS011;4379;59.744;18.206;2023-04-03T01:24:36;3.73;;;1.17;;
8683;SDS011;4379;59.744;18.206;2023-04-03T01:27:06;2.80;;;1.40;;
8683;SDS011;4379;59.744;18.206;2023-04-03T01:29:36;2.93;;;1.50;;
8683;SDS011;4379;59.744;18.206;2023-04-03T01:32:05;3.93;;;1.30;;
8683;SDS011;4379;59.744;18.206;2023-04-03T01:34:32;6.67;;;1.83;;
8683;SDS011;4379;59.744;18.206;2023-04-03T01:37:00;4.17;;;1.73;;
8683;SDS011;4379;59.744;18.206;2023-04-03T01:39:27;4.43;;;1.70;;
8683;SDS011;4379;59.744;18.206;2023-04-03T01:41:55;3.30;;;1.60;;
8683;SDS011;4379;59.744;18.206;2023-04-03T01:44:22;3.70;;;1.67;;
8683;SDS011;4379;59.744;18.206;2023-04-03T01:46:50;7.47;;;1.30;;
8683;SDS011;4379;59.744;18.206;2023-04-03T01:49:18;2.80;;;1.70;;
8683;SDS011;4379;59.744;18.206;2023-04-03T01:51:45;8.83;;;2.20;;
8683;SDS011;4379;59.744;18.206;2023-04-03T01:54:13;2.43;;;1.60;;
8683;SDS011;4379;59.744;18.206;2023-04-03T01:56:41;3.40;;;1.70;;
8683;SDS011;4379;59.744;18.206;2023-04-03T01:59:08;4.33;;;1.70;;
8683;SDS011;4379;59.744;18.206;2023-04-03T02:01:36;4.20;;;1.57;;
8683;SDS011;4379;59.744;18.206;2023-04-03T02:04:04;3.77;;;2.10;;
8683;SDS011;4379;59.744;18.206;2023-04-03T02:06:32;4.57;;;1.70;;
8683;SDS011;4379;59.744;18.206;2023-04-03T02:08:59;3.87;;;1.60;;
8683;SDS011;4379;59.744;18.206;2023-04-03T02:11:27;2.27;;;1.67;;
8683;SDS011;4379;59.744;18.206;2023-04-03T02:13:54;4.50;;;1.53;;
8683;SDS011;4379;59.744;18.206;2023-04-03T02:16:22;5.13;;;1.77;;
8683;SDS011;4379;59.744;18.206;2023-04-03T02:18:50;3.63;;;2.07;;
8683;SDS011;4379;59.744;18.206;2023-04-03T02:21:17;4.03;;;1.67;;
8683;SDS011;4379;59.744;18.206;2023-04-03T02:23:45;2.47;;;1.33;;
8683;SDS011;4379;59.744;18.206;2023-04-03T02:26:13;4.27;;;2.00;;
8683;SDS011;4379;59.744;18.206;2023-04-03T02:28:42;7.73;;;1.73;;
8683;SDS011;4379;59.744;18.206;2023-04-03T02:31:10;5.13;;;1.73;;
8683;SDS011;4379;59.744;18.206;2023-04-03T02:33:38;4.83;;;1.40;;
8683;SDS011;4379;59.744;18.206;2023-04-03T02:36:06;5.70;;;1.70;;
8683;SDS011;4379;59.744;18.206;2023-04-03T02:38:34;2.93;;;1.50;;
8683;SDS011;4379;59.744;18.206;2023-04-03T02:41:03;5.70;;;1.40;;
8683;SDS011;4379;59.744;18.206;2023-04-03T02:43:32;6.97;;;1.50;;
8683;SDS011;4379;59.744;18.206;2023-04-03T02:46:00;5.27;;;1.67;;
8683;SDS011;4379;59.744;18.206;2023-04-03T02:48:28;5.20;;;2.00;;
8683;SDS011;4379;59.744;18.206;2023-04-03T02:50:55;4.53;;;1.70;;
8683;SDS011;4379;59.744;18.206;2023-04-03T02:53:23;9.10;;;1.93;;
8683;SDS011;4379;59.744;18.206;2023-04-03T02:55:51;3.00;;;1.60;;
8683;SDS011;4379;59.744;18.206;2023-04-03T02:58:18;3.63;;;1.57;;
8683;SDS011;4379;59.744;18.206;2023-04-03T03:00:46;3.87;;;1.40;;
8683;SDS011;4379;59.744;18.206;2023-04-03T03:03:13;10.93;;;2.10;;
8683;SDS011;4379;59.744;18.206;2023-04-03T03:05:41;4.40;;;1.70;;
8683;SDS011;4379;59.744;18.206;2023-04-03T03:08:09;4.87;;;1.53;;
8683;SDS011;4379;59.744;18.206;2023-04-03T03:10:36;9.43;;;2.00;;
8683;SDS011;4379;59.744;18.206;2023-04-03T03:13:04;2.17;;;1.43;;
8683;SDS011;4379;59.744;18.206;2023-04-03T03:15:32;2.53;;;1.57;;
8683;SDS011;4379;59.744;18.206;2023-04-03T03:17:59;6.27;;;1.63;;
8683;SDS011;4379;59.744;18.206;2023-04-03T03:20:27;4.63;;;1.93;;
8683;SDS011;4379;59.744;18.206;2023-04-03T03:22:54;5.13;;;1.40;;
8683;SDS011;4379;59.744;18.206;2023-04-03T03:25:22;2.60;;;1.50;;
8683;SDS011;4379;59.744;18.206;2023-04-03T03:27:49;3.73;;;1.60;;
8683;SDS011;4379;59.744;18.206;2023-04-03T03:30:17;6.60;;;1.37;;
8683;SDS011;4379;59.744;18.206;2023-04-03T03:32:45;3.20;;;1.60;;
8683;SDS011;4379;59.744;18.206;2023-04-03T03:35:12;4.70;;;1.43;;
8683;SDS011;4379;59.744;18.206;2023-04-03T03:37:40;3.70;;;1.33;;
8683;SDS011;4379;59.744;18.206;2023-04-03T03:40:08;2.87;;;1.40;;
8683;SDS011;4379;59.744;18.206;2023-04-03T03:42:36;1.93;;;1.20;;
8683;SDS011;4379;59.744;18.206;2023-04-03T03:45:03;6.27;;;1.60;;
8683;SDS011;4379;59.744;18.206;2023-04-03T03:47:34;2.93;;;1.37;;
8683;SDS011;4379;59.744;18.206;2023-04-03T03:50:02;6.70;;;1.40;;
8683;SDS011;4379;59.744;18.206;2023-04-03T03:52:30;4.47;;;1.63;;
8683;SDS011;4379;59.744;18.206;2023-04-03T03:54:58;4.70;;;1.43;;
8683;SDS011;4379;59.744;18.206;2023-04-03T03:57:25;3.83;;;1.60;;
8683;SDS011;4379;59.744;18.206;2023-04-03T03:59:55;3.53;;;1.60;;
8683;SDS011;4379;59.744;18.206;2023-04-03T04:02:23;3.00;;;1.53;;
8683;SDS011;4379;59.744;18.206;2023-04-03T04:04:50;3.30;;;1.40;;
8683;SDS011;4379;59.744;18.206;2023-04-03T04:07:18;4.17;;;1.40;;
8683;SDS011;4379;59.744;18.206;2023-04-03T04:09:46;3.47;;;1.40;;
8683;SDS011;4379;59.744;18.206;2023-04-03T04:12:13;3.67;;;1.30;;
8683;SDS011;4379;59.744;18.206;2023-04-03T04:14:42;4.43;;;1.70;;
8683;SDS011;4379;59.744;18.206;2023-04-03T04:17:13;4.43;;;1.40;;
8683;SDS011;4379;59.744;18.206;2023-04-03T04:19:44;3.10;;;1.73;;
8683;SDS011;4379;59.744;18.206;2023-04-03T04:22:12;3.63;;;1.40;;
8683;SDS011;4379;59.744;18.206;2023-04-03T04:24:39;5.20;;;1.73;;
8683;SDS011;4379;59.744;18.206;2023-04-03T04:27:07;4.90;;;2.23;;
8683;SDS011;4379;59.744;18.206;2023-04-03T04:29:34;4.73;;;1.60;;
8683;SDS011;4379;59.744;18.206;2023-04-03T04:32:04;3.27;;;1.40;;
8683;SDS011;4379;59.744;18.206;2023-04-03T04:34:31;3.93;;;1.27;;
8683;SDS011;4379;59.744;18.206;2023-04-03T04:36:59;4.40;;;1.70;;
8683;SDS011;4379;59.744;18.206;2023-04-03T04:39:26;4.33;;;1.70;;
8683;SDS011;4379;59.744;18.206;2023-04-03T04:41:54;4.07;;;1.77;;
8683;SDS011;4379;59.744;18.206;2023-04-03T04:44:21;4.23;;;1.83;;
8683;SDS011;4379;59.744;18.206;2023-04-03T04:46:49;6.10;;;1.47;;
8683;SDS011;4379;59.744;18.206;2023-04-03T04:49:17;5.27;;;1.73;;
8683;SDS011;4379;59.744;18.206;2023-04-03T04:51:44;4.43;;;1.70;;
8683;SDS011;4379;59.744;18.206;2023-04-03T04:54:17;6.17;;;1.63;;
8683;SDS011;4379;59.744;18.206;2023-04-03T04:56:45;5.13;;;1.70;;
8683;SDS011;4379;59.744;18.206;2023-04-03T04:59:13;8.97;;;1.90;;
8683;SDS011;4379;59.744;18.206;2023-04-03T05:01:40;3.33;;;1.50;;
8683;SDS011;4379;59.744;18.206;2023-04-03T05:04:08;6.47;;;2.10;;
8683;SDS011;4379;59.744;18.206;2023-04-03T05:06:36;5.57;;;1.80;;
8683;SDS011;4379;59.744;18.206;2023-04-03T05:09:03;3.30;;;1.50;;
8683;SDS011;4379;59.744;18.206;2023-04-03T05:11:31;4.37;;;1.70;;
8683;SDS011;4379;59.744;18.206;2023-04-03T05:13:59;6.80;;;2.07;;
8683;SDS011;4379;59.744;18.206;2023-04-03T05:16:27;4.80;;;1.87;;
8683;SDS011;4379;59.744;18.206;2023-04-03T05:18:54;2.20;;;1.20;;
8683;SDS011;4379;59.744;18.206;2023-04-03T05:21:22;4.10;;;1.60;;
8683;SDS011;4379;59.744;18.206;2023-04-03T05:23:51;3.23;;;1.53;;
8683;SDS011;4379;59.744;18.206;2023-04-03T05:26:19;2.90;;;1.87;;
8683;SDS011;4379;59.744;18.206;2023-04-03T05:28:47;3.53;;;1.57;;
8683;SDS011;4379;59.744;18.206;2023-04-03T05:31:15;4.33;;;1.70;;
8683;SDS011;4379;59.744;18.206;2023-04-03T05:33:43;4.47;;;1.30;;
8683;SDS011;4379;59.744;18.206;2023-04-03T05:36:10;4.50;;;1.70;;
8683;SDS011;4379;59.744;18.206;2023-04-03T05:38:39;3.50;;;1.50;;
8683;SDS011;4379;59.744;18.206;2023-04-03T05:41:07;2.70;;;1.50;;
8683;SDS011;4379;59.744;18.206;2023-04-03T05:43:34;2.70;;;1.53;;
8683;SDS011;4379;59.744;18.206;2023-04-03T05:46:08;4.07;;;1.30;;
8683;SDS011;4379;59.744;18.206;2023-04-03T05:48:40;4.87;;;1.70;;
8683;SDS011;4379;59.744;18.206;2023-04-03T05:51:12;2.33;;;1.40;;
8683;SDS011;4379;59.744;18.206;2023-04-03T05:53:45;2.20;;;1.37;;
8683;SDS011;4379;59.744;18.206;2023-04-03T05:56:14;6.17;;;1.30;;
8683;SDS011;4379;59.744;18.206;2023-04-03T05:58:42;4.37;;;1.47;;
8683;SDS011;4379;59.744;18.206;2023-04-03T06:01:09;2.07;;;1.40;;
8683;SDS011;4379;59.744;18.206;2023-04-03T06:03:37;3.40;;;1.13;;
8683;SDS011;4379;59.744;18.206;2023-04-03T06:06:06;3.47;;;1.30;;
8683;SDS011;4379;59.744;18.206;2023-04-03T06:08:34;2.47;;;1.70;;
8683;SDS011;4379;59.744;18.206;2023-04-03T06:11:02;4.17;;;1.33;;
8683;SDS011;4379;59.744;18.206;2023-04-03T06:13:29;2.83;;;1.07;;
8683;SDS011;4379;59.744;18.206;2023-04-03T06:15:58;1.97;;;1.20;;
8683;SDS011;4379;59.744;18.206;2023-04-03T06:18:26;1.90;;;1.13;;
8683;SDS011;4379;59.744;18.206;2023-04-03T06:20:54;2.17;;;1.20;;
8683;SDS011;4379;59.744;18.206;2023-04-03T06:23:22;2.57;;;1.37;;
8683;SDS011;4379;59.744;18.206;2023-04-03T06:25:51;2.47;;;1.53;;
8683;SDS011;4379;59.744;18.206;2023-04-03T06:28:18;1.97;;;1.60;;
8683;SDS011;4379;59.744;18.206;2023-04-03T06:30:46;5.20;;;1.80;;
8683;SDS011;4379;59.744;18.206;2023-04-03T06:33:14;4.60;;;1.73;;
8683;SDS011;4379;59.744;18.206;2023-04-03T06:35:42;2.80;;;1.53;;
8683;SDS011;4379;59.744;18.206;2023-04-03T06:38:10;1.90;;;1.27;;
8683;SDS011;4379;59.744;18.206;2023-04-03T06:40:38;3.53;;;1.40;;
8683;SDS011;4379;59.744;18.206;2023-04-03T06:43:06;2.87;;;1.60;;
8683;SDS011;4379;59.744;18.206;2023-04-03T06:45:34;1.80;;;1.20;;
8683;SDS011;4379;59.744;18.206;2023-04-03T06:48:03;2.97;;;1.30;;
8683;SDS011;4379;59.744;18.206;2023-04-03T06:50:32;2.40;;;1.37;;
8683;SDS011;4379;59.744;18.206;2023-04-03T06:53:00;1.70;;;1.17;;
8683;SDS011;4379;59.744;18.206;2023-04-03T06:55:28;2.53;;;1.30;;
8683;SDS011;4379;59.744;18.206;2023-04-03T06:57:56;3.30;;;1.73;;
8683;SDS011;4379;59.744;18.206;2023-04-03T07:00:23;2.17;;;1.37;;
8683;SDS011;4379;59.744;18.206;2023-04-03T07:02:54;1.60;;;1.40;;
8683;SDS011;4379;59.744;18.206;2023-04-03T07:05:26;2.33;;;1.30;;
8683;SDS011;4379;59.744;18.206;2023-04-03T07:07:54;2.43;;;1.40;;
8683;SDS011;4379;59.744;18.206;2023-04-03T07:10:23;4.17;;;1.70;;
8683;SDS011;4379;59.744;18.206;2023-04-03T07:12:51;2.67;;;1.47;;
8683;SDS011;4379;59.744;18.206;2023-04-03T07:15:19;3.10;;;1.33;;
8683;SDS011;4379;59.744;18.206;2023-04-03T07:17:47;2.27;;;1.13;;
8683;SDS011;4379;59.744;18.206;2023-04-03T07:20:15;4.50;;;1.60;;
8683;SDS011;4379;59.744;18.206;2023-04-03T07:22:43;2.07;;;1.17;;
8683;SDS011;4379;59.744;18.206;2023-04-03T07:25:11;2.33;;;1.50;;
8683;SDS011;4379;59.744;18.206;2023-04-03T07:27:40;3.60;;;1.27;;
8683;SDS011;4379;59.744;18.206;2023-04-03T07:30:07;1.57;;;1.37;;
8683;SDS011;4379;59.744;18.206;2023-04-03T07:32:35;2.47;;;1.50;;
8683;SDS011;4379;59.744;18.206;2023-04-03T07:35:03;4.93;;;1.73;;
8683;SDS011;4379;59.744;18.206;2023-04-03T07:37:31;2.97;;;1.53;;
8683;SDS011;4379;59.744;18.206;2023-04-03T07:39:59;1.73;;;1.40;;
8683;SDS011;4379;59.744;18.206;2023-04-03T07:42:29;1.47;;;1.33;;
8683;SDS011;4379;59.744;18.206;2023-04-03T07:44:57;1.98;;;1.20;;
8683;SDS011;4379;59.744;18.206;2023-04-03T07:47:24;2.70;;;1.38;;
8683;SDS011;4379;59.744;18.206;2023-04-03T07:49:52;2.30;;;1.40;;
8683;SDS011;4379;59.744;18.206;2023-04-03T07:52:20;1.63;;;1.52;;
8683;SDS011;4379;59.744;18.206;2023-04-03T07:54:48;1.83;;;1.30;;
8683;SDS011;4379;59.744;18.206;2023-04-03T07:57:17;1.38;;;1.27;;
8683;SDS011;4379;59.744;18.206;2023-04-03T07:59:47;2.25;;;1.60;;
8683;SDS011;4379;59.744;18.206;2023-04-03T08:02:16;1.70;;;1.42;;
8683;SDS011;4379;59.744;18.206;2023-04-03T08:04:43;1.52;;;1.42;;
8683;SDS011;4379;59.744;18.206;2023-04-03T08:07:11;3.47;;;1.58;;
8683;SDS011;4379;59.744;18.206;2023-04-03T08:09:40;1.30;;;1.20;;
8683;SDS011;4379;59.744;18.206;2023-04-03T08:12:08;2.63;;;1.52;;
8683;SDS011;4379;59.744;18.206;2023-04-03T08:14:38;1.35;;;1.23;;
8683;SDS011;4379;59.744;18.206;2023-04-03T08:17:05;3.00;;;1.70;;
8683;SDS011;4379;59.744;18.206;2023-04-03T08:19:36;2.23;;;1.40;;
8683;SDS011;4379;59.744;18.206;2023-04-03T08:22:04;2.07;;;1.40;;
8683;SDS011;4379;59.744;18.206;2023-04-03T08:24:32;0.87;;;0.87;;
8683;SDS011;4379;59.744;18.206;2023-04-03T08:27:01;3.63;;;1.40;;
8683;SDS011;4379;59.744;18.206;2023-04-03T08:29:29;1.70;;;1.17;;
8683;SDS011;4379;59.744;18.206;2023-04-03T08:31:59;2.57;;;1.50;;
8683;SDS011;4379;59.744;18.206;2023-04-03T08:34:26;1.83;;;1.33;;
8683;SDS011;4379;59.744;18.206;2023-04-03T08:36:54;2.20;;;1.30;;
8683;SDS011;4379;59.744;18.206;2023-04-03T08:39:22;2.10;;;1.53;;
8683;SDS011;4379;59.744;18.206;2023-04-03T08:41:49;1.03;;;0.90;;
8683;SDS011;4379;59.744;18.206;2023-04-03T08:47:08;1.65;;;1.05;;
8683;SDS011;4379;59.744;18.206;2023-04-03T08:49:42;2.60;;;1.20;;
8683;SDS011;4379;59.744;18.206;2023-04-03T08:52:19;1.27;;;1.17;;
8683;SDS011;4379;59.744;18.206;2023-04-03T08:55:06;1.40;;;1.10;;
8683;SDS011;4379;59.744;18.206;2023-04-03T08:58:02;1.35;;;0.90;;
8683;SDS011;4379;59.744;18.206;2023-04-03T09:00:43;1.15;;;0.95;;
8683;SDS011;4379;59.744;18.206;2023-04-03T09:03:18;1.13;;;1.10;;
8683;SDS011;4379;59.744;18.206;2023-04-03T09:05:55;1.20;;;1.10;;
8683;SDS011;4379;59.744;18.206;2023-04-03T09:08:30;1.73;;;1.50;;
8683;SDS011;4379;59.744;18.206;2023-04-03T09:11:13;1.42;;;1.17;;
8683;SDS011;4379;59.744;18.206;2023-04-03T09:14:15;0.82;;;0.82;;
8683;SDS011;4379;59.744;18.206;2023-04-03T09:16:59;1.30;;;1.20;;
8683;SDS011;4379;59.744;18.206;2023-04-03T09:22:25;1.00;;;1.00;;
8683;SDS011;4379;59.744;18.206;2023-04-03T09:24:59;1.50;;;1.20;;
8683;SDS011;4379;59.744;18.206;2023-04-03T09:27:50;1.13;;;1.03;;
8683;SDS011;4379;59.744;18.206;2023-04-03T09:30:19;1.70;;;1.60;;
8683;SDS011;4379;59.744;18.206;2023-04-03T09:32:54;1.90;;;1.30;;
8683;SDS011;4379;59.744;18.206;2023-04-03T09:35:27;1.33;;;1.07;;
8683;SDS011;4379;59.744;18.206;2023-04-03T09:40:44;1.30;;;1.20;;
8683;SDS011;4379;59.744;18.206;2023-04-03T09:45:45;1.23;;;1.10;;
8683;SDS011;4379;59.744;18.206;2023-04-03T09:48:19;1.37;;;1.03;;
8683;SDS011;4379;59.744;18.206;2023-04-03T09:53:31;1.00;;;0.80;;
8683;SDS011;4379;59.744;18.206;2023-04-03T09:55:59;3.23;;;2.50;;
8683;SDS011;4379;59.744;18.206;2023-04-03T09:58:31;1.13;;;1.03;;
8683;SDS011;4379;59.744;18.206;2023-04-03T10:01:36;1.07;;;0.90;;
8683;SDS011;4379;59.744;18.206;2023-04-03T10:04:09;1.17;;;0.90;;
8683;SDS011;4379;59.744;18.206;2023-04-03T10:23:11;1.10;;;0.90;;
8683;SDS011;4379;59.744;18.206;2023-04-03T10:26:02;1.17;;;0.97;;
8683;SDS011;4379;59.744;18.206;2023-04-03T10:36:45;0.60;;;0.60;;
8683;SDS011;4379;59.744;18.206;2023-04-03T10:39:56;1.23;;;0.80;;
8683;SDS011;4379;59.744;18.206;2023-04-03T10:42:29;1.03;;;0.80;;
8683;SDS011;4379;59.744;18.206;2023-04-03T10:47:56;1.53;;;1.10;;
8683;SDS011;4379;59.744;18.206;2023-04-03T10:50:43;0.70;;;0.70;;
8683;SDS011;4379;59.744;18.206;2023-04-03T10:58:43;0.97;;;0.70;;
8683;SDS011;4379;59.744;18.206;2023-04-03T11:01:19;1.03;;;0.80;;
8683;SDS011;4379;59.744;18.206;2023-04-03T11:04:00;1.23;;;0.63;;
8683;SDS011;4379;59.744;18.206;2023-04-03T11:09:41;0.63;;;0.60;;
8683;SDS011;4379;59.744;18.206;2023-04-03T11:12:16;1.67;;;0.77;;
8683;SDS011;4379;59.744;18.206;2023-04-03T11:14:53;1.00;;;0.90;;
8683;SDS011;4379;59.744;18.206;2023-04-03T11:17:28;0.87;;;0.87;;
8683;SDS011;4379;59.744;18.206;2023-04-03T11:20:14;0.93;;;0.67;;
8683;SDS011;4379;59.744;18.206;2023-04-03T11:23:03;2.43;;;0.90;;
8683;SDS011;4379;59.744;18.206;2023-04-03T11:25:35;0.80;;;0.80;;
8683;SDS011;4379;59.744;18.206;2023-04-03T11:28:09;1.33;;;0.87;;
8683;SDS011;4379;59.744;18.206;2023-04-03T11:33:37;1.20;;;0.70;;
8683;SDS011;4379;59.744;18.206;2023-04-03T11:36:12;1.37;;;1.10;;
8683;SDS011;4379;59.744;18.206;2023-04-03T11:39:09;2.60;;;0.70;;
8683;SDS011;4379;59.744;18.206;2023-04-03T11:41:50;0.70;;;0.50;;
8683;SDS011;4379;59.744;18.206;2023-04-03T11:44:35;1.60;;;0.60;;
8683;SDS011;4379;59.744;18.206;2023-04-03T11:47:06;1.20;;;0.80;;
8683;SDS011;4379;59.744;18.206;2023-04-03T11:49:51;1.17;;;0.70;;
8683;SDS011;4379;59.744;18.206;2023-04-03T12:22:12;0.40;;;0.40;;
8683;SDS011;4379;59.744;18.206;2023-04-03T12:24:48;0.90;;;0.70;;
8683;SDS011;4379;59.744;18.206;2023-04-03T12:27:21;0.43;;;0.43;;
8683;SDS011;4379;59.744;18.206;2023-04-03T12:30:03;0.50;;;0.50;;
8683;SDS011;4379;59.744;18.206;2023-04-03T12:38:28;0.73;;;0.73;;
8683;SDS011;4379;59.744;18.206;2023-04-03T12:41:21;2.50;;;0.83;;
8683;SDS011;4379;59.744;18.206;2023-04-03T12:46:37;0.77;;;0.67;;
8683;SDS011;4379;59.744;18.206;2023-04-03T12:51:59;1.03;;;0.70;;
8683;SDS011;4379;59.744;18.206;2023-04-03T12:54:34;1.10;;;0.70;;
8683;SDS011;4379;59.744;18.206;2023-04-03T12:57:16;0.67;;;0.67;;
8683;SDS011;4379;59.744;18.206;2023-04-03T12:59:46;1.30;;;0.63;;
8683;SDS011;4379;59.744;18.206;2023-04-03T13:02:24;1.33;;;0.80;;
8683;SDS011;4379;59.744;18.206;2023-04-03T13:05:08;1.47;;;0.67;;
8683;SDS011;4379;59.744;18.206;2023-04-03T13:07:41;0.63;;;0.57;;
8683;SDS011;4379;59.744;18.206;2023-04-03T13:12:47;1.40;;;0.60;;
8683;SDS011;4379;59.744;18.206;2023-04-03T13:15:16;1.70;;;0.70;;
8683;SDS011;4379;59.744;18.206;2023-04-03T13:17:49;0.63;;;0.63;;
8683;SDS011;4379;59.744;18.206;2023-04-03T13:20:29;1.30;;;0.77;;
8683;SDS011;4379;59.744;18.206;2023-04-03T13:23:06;0.90;;;0.80;;
8683;SDS011;4379;59.744;18.206;2023-04-03T13:25:36;0.47;;;0.47;;
8683;SDS011;4379;59.744;18.206;2023-04-03T13:28:11;0.80;;;0.80;;
8683;SDS011;4379;59.744;18.206;2023-04-03T13:30:41;1.13;;;0.87;;
8683;SDS011;4379;59.744;18.206;2023-04-03T13:33:31;0.77;;;0.77;;
8683;SDS011;4379;59.744;18.206;2023-04-03T13:36:08;0.67;;;0.67;;
8683;SDS011;4379;59.744;18.206;2023-04-03T13:38:57;1.70;;;0.83;;
8683;SDS011;4379;59.744;18.206;2023-04-03T13:41:34;1.80;;;0.70;;
8683;SDS011;4379;59.744;18.206;2023-04-03T13:46:50;1.70;;;0.60;;
8683;SDS011;4379;59.744;18.206;2023-04-03T13:52:03;0.80;;;0.60;;
8683;SDS011;4379;59.744;18.206;2023-04-03T13:55:19;1.40;;;0.90;;
8683;SDS011;4379;59.744;18.206;2023-04-03T13:58:34;0.70;;;0.70;;
8683;SDS011;4379;59.744;18.206;2023-04-03T14:00:49;0.60;;;0.60;;
8683;SDS011;4379;59.744;18.206;2023-04-03T14:05:55;1.53;;;0.57;;
8683;SDS011;4379;59.744;18.206;2023-04-03T14:08:23;1.07;;;0.70;;
8683;SDS011;4379;59.744;18.206;2023-04-03T14:11:41;2.93;;;0.90;;
8683;SDS011;4379;59.744;18.206;2023-04-03T14:14:05;0.90;;;0.63;;
8683;SDS011;4379;59.744;18.206;2023-04-03T14:16:40;1.17;;;0.77;;
8683;SDS011;4379;59.744;18.206;2023-04-03T14:19:17;0.67;;;0.60;;
8683;SDS011;4379;59.744;18.206;2023-04-03T14:21:55;0.70;;;0.70;;
8683;SDS011;4379;59.744;18.206;2023-04-03T14:24:24;1.33;;;0.90;;
8683;SDS011;4379;59.744;18.206;2023-04-03T14:26:52;1.20;;;1.10;;
8683;SDS011;4379;59.744;18.206;2023-04-03T14:29:21;1.20;;;1.10;;
8683;SDS011;4379;59.744;18.206;2023-04-03T14:31:49;0.80;;;0.80;;
8683;SDS011;4379;59.744;18.206;2023-04-03T14:34:33;1.03;;;0.80;;
8683;SDS011;4379;59.744;18.206;2023-04-03T14:37:00;1.23;;;0.67;;
8683;SDS011;4379;59.744;18.206;2023-04-03T14:39:28;2.27;;;0.70;;
8683;SDS011;4379;59.744;18.206;2023-04-03T14:41:56;1.70;;;0.73;;
8683;SDS011;4379;59.744;18.206;2023-04-03T14:44:24;0.67;;;0.67;;
8683;SDS011;4379;59.744;18.206;2023-04-03T14:46:52;0.67;;;0.63;;
8683;SDS011;4379;59.744;18.206;2023-04-03T14:49:26;0.50;;;0.50;;
8683;SDS011;4379;59.744;18.206;2023-04-03T14:51:56;0.60;;;0.60;;
8683;SDS011;4379;59.744;18.206;2023-04-03T14:54:25;0.60;;;0.60;;
8683;SDS011;4379;59.744;18.206;2023-04-03T14:56:55;0.50;;;0.50;;
8683;SDS011;4379;59.744;18.206;2023-04-03T14:59:25;0.80;;;0.80;;
8683;SDS011;4379;59.744;18.206;2023-04-03T15:01:55;0.60;;;0.60;;
8683;SDS011;4379;59.744;18.206;2023-04-03T15:04:24;1.00;;;0.70;;
8683;SDS011;4379;59.744;18.206;2023-04-03T15:06:52;0.93;;;0.50;;
8683;SDS011;4379;59.744;18.206;2023-04-03T15:09:20;0.80;;;0.70;;
8683;SDS011;4379;59.744;18.206;2023-04-03T15:11:54;0.87;;;0.50;;
8683;SDS011;4379;59.744;18.206;2023-04-03T15:14:22;0.70;;;0.70;;
8683;SDS011;4379;59.744;18.206;2023-04-03T15:17:03;0.60;;;0.60;;
8683;SDS011;4379;59.744;18.206;2023-04-03T15:19:35;0.73;;;0.73;;
8683;SDS011;4379;59.744;18.206;2023-04-03T15:22:04;2.27;;;0.80;;
8683;SDS011;4379;59.744;18.206;2023-04-03T15:24:32;0.80;;;0.80;;
8683;SDS011;4379;59.744;18.206;2023-04-03T15:27:00;0.97;;;0.60;;
8683;SDS011;4379;59.744;18.206;2023-04-03T15:29:28;0.50;;;0.50;;
8683;SDS011;4379;59.744;18.206;2023-04-03T15:31:55;0.70;;;0.70;;
8683;SDS011;4379;59.744;18.206;2023-04-03T15:34:23;1.47;;;0.60;;
8683;SDS011;4379;59.744;18.206;2023-04-03T15:36:52;0.93;;;0.80;;
8683;SDS011;4379;59.744;18.206;2023-04-03T15:39:20;1.53;;;0.67;;
8683;SDS011;4379;59.744;18.206;2023-04-03T15:41:48;0.63;;;0.60;;
8683;SDS011;4379;59.744;18.206;2023-04-03T15:44:16;0.93;;;0.70;;
8683;SDS011;4379;59.744;18.206;2023-04-03T15:46:47;0.60;;;0.60;;
8683;SDS011;4379;59.744;18.206;2023-04-03T15:49:18;1.53;;;0.83;;
8683;SDS011;4379;59.744;18.206;2023-04-03T15:51:52;0.70;;;0.60;;
8683;SDS011;4379;59.744;18.206;2023-04-03T15:54:22;0.80;;;0.50;;
8683;SDS011;4379;59.744;18.206;2023-04-03T15:56:52;0.77;;;0.53;;
8683;SDS011;4379;59.744;18.206;2023-04-03T15:59:21;0.87;;;0.67;;
8683;SDS011;4379;59.744;18.206;2023-04-03T16:01:49;0.60;;;0.60;;
8683;SDS011;4379;59.744;18.206;2023-04-03T16:04:20;0.73;;;0.63;;
8683;SDS011;4379;59.744;18.206;2023-04-03T16:06:48;1.07;;;0.50;;
8683;SDS011;4379;59.744;18.206;2023-04-03T16:09:16;1.63;;;1.03;;
8683;SDS011;4379;59.744;18.206;2023-04-03T16:11:44;1.07;;;0.70;;
8683;SDS011;4379;59.744;18.206;2023-04-03T16:14:13;0.70;;;0.60;;
8683;SDS011;4379;59.744;18.206;2023-04-03T16:16:40;0.50;;;0.50;;
8683;SDS011;4379;59.744;18.206;2023-04-03T16:19:08;2.10;;;0.60;;
8683;SDS011;4379;59.744;18.206;2023-04-03T16:21:39;0.90;;;0.70;;
8683;SDS011;4379;59.744;18.206;2023-04-03T16:24:09;0.57;;;0.57;;
8683;SDS011;4379;59.744;18.206;2023-04-03T16:26:37;0.70;;;0.60;;
8683;SDS011;4379;59.744;18.206;2023-04-03T16:29:06;0.63;;;0.63;;
8683;SDS011;4379;59.744;18.206;2023-04-03T16:31:37;0.60;;;0.50;;
8683;SDS011;4379;59.744;18.206;2023-04-03T16:34:07;1.20;;;0.73;;
8683;SDS011;4379;59.744;18.206;2023-04-03T16:36:40;1.20;;;0.73;;
8683;SDS011;4379;59.744;18.206;2023-04-03T16:39:08;0.63;;;0.63;;
8683;SDS011;4379;59.744;18.206;2023-04-03T16:41:36;1.27;;;0.60;;
8683;SDS011;4379;59.744;18.206;2023-04-03T16:44:04;0.70;;;0.60;;
8683;SDS011;4379;59.744;18.206;2023-04-03T16:46:34;0.60;;;0.60;;
8683;SDS011;4379;59.744;18.206;2023-04-03T16:49:02;2.20;;;0.60;;
8683;SDS011;4379;59.744;18.206;2023-04-03T16:51:31;0.70;;;0.67;;
8683;SDS011;4379;59.744;18.206;2023-04-03T16:53:59;1.07;;;0.77;;
8683;SDS011;4379;59.744;18.206;2023-04-03T16:56:27;1.33;;;0.73;;
8683;SDS011;4379;59.744;18.206;2023-04-03T16:58:55;1.00;;;0.60;;
8683;SDS011;4379;59.744;18.206;2023-04-03T17:01:23;0.50;;;0.50;;
8683;SDS011;4379;59.744;18.206;2023-04-03T17:03:51;0.83;;;0.70;;
8683;SDS011;4379;59.744;18.206;2023-04-03T17:06:19;0.50;;;0.50;;
8683;SDS011;4379;59.744;18.206;2023-04-03T17:08:50;0.57;;;0.57;;
8683;SDS011;4379;59.744;18.206;2023-04-03T17:11:19;1.43;;;0.80;;
8683;SDS011;4379;59.744;18.206;2023-04-03T17:13:47;0.97;;;0.80;;